sensor_id;sensor_type;location;lat;lon;timestamp;pressure;altitude;pressure_sealevel;temperature;humidity
69247;BME280;56358;56.328;43.992;2023-04-01T00:01:58;99598.91;;;2.72;71.77
69247;BME280;56358;56.328;43.992;2023-04-01T00:03:59;99628.59;;;2.92;71.74
69247;BME280;56358;56.328;43.992;2023-04-01T00:06:02;99631.25;;;2.92;71.86
69247;BME280;56358;56.328;43.992;2023-04-01T00:08:03;99615.06;;;2.82;72.01
69247;BME280;56358;56.328;43.992;2023-04-01T00:10:07;99640.06;;;2.92;72.03
69247;BME280;56358;56.328;43.992;2023-04-01T00:12:08;99487.50;;;2.01;72.09
69247;BME280;56358;56.328;43.992;2023-04-01T00:14:09;99632.66;;;2.83;72.15
69247;BME280;56358;56.328;43.992;2023-04-01T00:16:11;99623.59;;;2.87;72.52
69247;BME280;56358;56.328;43.992;2023-04-01T00:18:12;99623.00;;;2.82;72.46
69247;BME280;56358;56.328;43.992;2023-04-01T00:20:14;99554.84;;;2.41;72.65
69247;BME280;56358;56.328;43.992;2023-04-01T00:22:14;99616.94;;;2.80;72.63
69247;BME280;56358;56.328;43.992;2023-04-01T00:24:15;99613.47;;;2.79;72.81
69247;BME280;56358;56.328;43.992;2023-04-01T00:26:17;99606.53;;;2.77;72.69
69247;BME280;56358;56.328;43.992;2023-04-01T00:28:19;99529.03;;;2.30;72.87
69247;BME280;56358;56.328;43.992;2023-04-01T00:30:20;99607.78;;;2.71;72.90
69247;BME280;56358;56.328;43.992;2023-04-01T00:32:21;99577.78;;;2.56;73.07
69247;BME280;56358;56.328;43.992;2023-04-01T00:34:21;99580.22;;;2.59;73.11
69247;BME280;56358;56.328;43.992;2023-04-01T00:36:22;99592.53;;;2.60;73.19
69247;BME280;56358;56.328;43.992;2023-04-01T00:38:23;99598.03;;;2.72;73.39
69247;BME280;56358;56.328;43.992;2023-04-01T00:40:35;99587.97;;;2.62;73.43
69247;BME280;56358;56.328;43.992;2023-04-01T00:42:36;99500.28;;;2.09;73.54
69247;BME280;56358;56.328;43.992;2023-04-01T00:44:38;99602.72;;;2.66;73.87
69247;BME280;56358;56.328;43.992;2023-04-01T00:46:39;99604.94;;;2.74;73.64
69247;BME280;56358;56.328;43.992;2023-04-01T00:48:42;99612.88;;;2.74;73.79
69247;BME280;56358;56.328;43.992;2023-04-01T00:50:48;99603.16;;;2.75;73.63
69247;BME280;56358;56.328;43.992;2023-04-01T00:52:51;99551.38;;;2.40;73.96
69247;BME280;56358;56.328;43.992;2023-04-01T00:54:56;99594.25;;;2.76;73.88
69247;BME280;56358;56.328;43.992;2023-04-01T00:57:05;99597.38;;;2.68;74.12
69247;BME280;56358;56.328;43.992;2023-04-01T00:59:14;99598.03;;;2.72;74.04
69247;BME280;56358;56.328;43.992;2023-04-01T01:01:16;99567.00;;;2.59;74.23
69247;BME280;56358;56.328;43.992;2023-04-01T01:03:17;99590.41;;;2.81;73.94
69247;BME280;56358;56.328;43.992;2023-04-01T01:05:22;99592.97;;;2.83;73.84
69247;BME280;56358;56.328;43.992;2023-04-01T01:07:36;99588.41;;;2.85;73.73
69247;BME280;56358;56.328;43.992;2023-04-01T01:10:29;99564.84;;;2.66;73.99
69247;BME280;56358;56.328;43.992;2023-04-01T01:12:15;99591.25;;;2.82;74.10
69247;BME280;56358;56.328;43.992;2023-04-01T01:14:49;99597.38;;;2.82;74.15
69247;BME280;56358;56.328;43.992;2023-04-01T01:16:53;99592.38;;;2.78;74.27
69247;BME280;56358;56.328;43.992;2023-04-01T01:32:44;99592.09;;;2.82;75.27
69247;BME280;56358;56.328;43.992;2023-04-01T01:37:10;99552.25;;;2.55;75.63
69247;BME280;56358;56.328;43.992;2023-04-01T01:39:14;99582.81;;;2.75;75.79
69247;BME280;56358;56.328;43.992;2023-04-01T01:41:16;99582.03;;;2.73;75.88
69247;BME280;56358;56.328;43.992;2023-04-01T01:43:21;99591.88;;;2.71;76.12
69247;BME280;56358;56.328;43.992;2023-04-01T01:45:25;99568.53;;;2.63;76.07
69247;BME280;56358;56.328;43.992;2023-04-01T01:47:27;99597.09;;;2.73;76.07
69247;BME280;56358;56.328;43.992;2023-04-01T01:49:30;99575.78;;;2.60;76.43
69247;BME280;56358;56.328;43.992;2023-04-01T01:51:33;99563.13;;;2.65;76.25
69247;BME280;56358;56.328;43.992;2023-04-01T01:53:34;99583.50;;;2.79;76.22
69247;BME280;56358;56.328;43.992;2023-04-01T01:55:44;99565.53;;;2.70;76.29
69247;BME280;56358;56.328;43.992;2023-04-01T01:57:45;99587.47;;;2.86;76.22
69247;BME280;56358;56.328;43.992;2023-04-01T01:59:47;99587.38;;;2.88;75.99
69247;BME280;56358;56.328;43.992;2023-04-01T02:01:51;99597.38;;;2.82;76.26
69247;BME280;56358;56.328;43.992;2023-04-01T02:03:52;99585.00;;;2.83;76.33
69247;BME280;56358;56.328;43.992;2023-04-01T02:05:56;99548.28;;;2.62;76.37
69247;BME280;56358;56.328;43.992;2023-04-01T02:08:06;99584.72;;;2.88;76.35
69247;BME280;56358;56.328;43.992;2023-04-01T02:10:08;99518.13;;;2.50;76.11
69247;BME280;56358;56.328;43.992;2023-04-01T02:12:11;99581.91;;;2.91;76.15
69247;BME280;56358;56.328;43.992;2023-04-01T02:14:15;99576.53;;;2.92;75.93
69247;BME280;56358;56.328;43.992;2023-04-01T02:16:51;99575.06;;;2.87;76.17
69247;BME280;56358;56.328;43.992;2023-04-01T02:18:55;99567.41;;;2.82;76.12
69247;BME280;56358;56.328;43.992;2023-04-01T02:20:58;99572.34;;;2.88;76.09
69247;BME280;56358;56.328;43.992;2023-04-01T02:23:00;99573.38;;;2.85;76.32
69247;BME280;56358;56.328;43.992;2023-04-01T02:25:11;99575.84;;;2.89;76.21
69247;BME280;56358;56.328;43.992;2023-04-01T02:27:13;99548.41;;;2.75;76.11
69247;BME280;56358;56.328;43.992;2023-04-01T02:29:14;99584.38;;;2.94;75.91
69247;BME280;56358;56.328;43.992;2023-04-01T02:31:16;99580.78;;;2.95;75.83
69247;BME280;56358;56.328;43.992;2023-04-01T02:33:18;99578.19;;;2.93;75.94
69247;BME280;56358;56.328;43.992;2023-04-01T02:35:20;99591.38;;;2.95;75.94
69247;BME280;56358;56.328;43.992;2023-04-01T02:37:21;99581.53;;;2.97;75.85
69247;BME280;56358;56.328;43.992;2023-04-01T02:39:22;99586.91;;;2.95;75.88
69247;BME280;56358;56.328;43.992;2023-04-01T02:41:23;99485.13;;;2.42;75.53
69247;BME280;56358;56.328;43.992;2023-04-01T02:43:24;99579.25;;;3.05;75.31
69247;BME280;56358;56.328;43.992;2023-04-01T02:45:25;99573.56;;;2.97;75.49
69247;BME280;56358;56.328;43.992;2023-04-01T02:47:25;99503.84;;;2.53;75.40
69247;BME280;56358;56.328;43.992;2023-04-01T02:49:26;99585.69;;;3.01;75.31
69247;BME280;56358;56.328;43.992;2023-04-01T02:51:27;99578.78;;;2.98;75.59
69247;BME280;56358;56.328;43.992;2023-04-01T02:53:27;99589.09;;;3.03;75.62
69247;BME280;56358;56.328;43.992;2023-04-01T02:55:28;99580.97;;;3.06;75.46
69247;BME280;56358;56.328;43.992;2023-04-01T02:57:28;99575.56;;;3.08;75.25
69247;BME280;56358;56.328;43.992;2023-04-01T02:59:29;99599.59;;;3.05;75.27
69247;BME280;56358;56.328;43.992;2023-04-01T03:01:30;99554.66;;;2.89;74.86
69247;BME280;56358;56.328;43.992;2023-04-01T03:03:31;99572.34;;;3.02;75.09
69247;BME280;56358;56.328;43.992;2023-04-01T03:05:31;99582.78;;;3.06;75.17
69247;BME280;56358;56.328;43.992;2023-04-01T03:07:32;99440.25;;;2.26;74.91
69247;BME280;56358;56.328;43.992;2023-04-01T03:09:33;99586.25;;;3.06;74.98
69247;BME280;56358;56.328;43.992;2023-04-01T03:11:34;99517.19;;;2.66;75.01
69247;BME280;56358;56.328;43.992;2023-04-01T03:13:36;99576.44;;;3.08;74.78
69247;BME280;56358;56.328;43.992;2023-04-01T03:15:36;99582.47;;;3.10;75.13
69247;BME280;56358;56.328;43.992;2023-04-01T03:17:38;99568.94;;;3.00;74.82
69247;BME280;56358;56.328;43.992;2023-04-01T03:19:38;99578.69;;;3.14;74.60
69247;BME280;56358;56.328;43.992;2023-04-01T03:21:39;99496.22;;;2.63;74.54
69247;BME280;56358;56.328;43.992;2023-04-01T03:23:40;99447.41;;;2.24;74.81
69247;BME280;56358;56.328;43.992;2023-04-01T03:25:40;99575.88;;;3.03;75.10
69247;BME280;56358;56.328;43.992;2023-04-01T03:27:41;99573.78;;;3.08;74.85
69247;BME280;56358;56.328;43.992;2023-04-01T03:29:42;99580.88;;;3.08;75.10
69247;BME280;56358;56.328;43.992;2023-04-01T03:31:42;99574.81;;;3.06;74.81
69247;BME280;56358;56.328;43.992;2023-04-01T03:33:43;99486.47;;;2.49;75.05
69247;BME280;56358;56.328;43.992;2023-04-01T03:35:44;99591.84;;;3.01;74.78
69247;BME280;56358;56.328;43.992;2023-04-01T03:37:45;99583.91;;;3.01;75.07
69247;BME280;56358;56.328;43.992;2023-04-01T03:39:46;99579.75;;;2.97;74.74
69247;BME280;56358;56.328;43.992;2023-04-01T03:41:46;99584.94;;;2.99;74.54
69247;BME280;56358;56.328;43.992;2023-04-01T03:43:47;99491.09;;;2.45;74.73
69247;BME280;56358;56.328;43.992;2023-04-01T03:45:50;99584.72;;;2.88;74.77
69247;BME280;56358;56.328;43.992;2023-04-01T03:47:51;99494.31;;;2.36;75.32
69247;BME280;56358;56.328;43.992;2023-04-01T03:49:52;99590.78;;;2.90;74.89
69247;BME280;56358;56.328;43.992;2023-04-01T03:51:52;99568.66;;;2.76;75.31
69247;BME280;56358;56.328;43.992;2023-04-01T03:53:53;99547.44;;;2.62;75.27
69247;BME280;56358;56.328;43.992;2023-04-01T03:55:54;99584.16;;;2.82;75.44
69247;BME280;56358;56.328;43.992;2023-04-01T03:57:54;99568.75;;;2.75;75.54
69247;BME280;56358;56.328;43.992;2023-04-01T03:59:55;99485.22;;;2.26;75.72
69247;BME280;56358;56.328;43.992;2023-04-01T04:01:56;99568.44;;;2.65;75.53
69247;BME280;56358;56.328;43.992;2023-04-01T04:03:57;99525.50;;;2.45;75.69
69247;BME280;56358;56.328;43.992;2023-04-01T04:05:58;99561.06;;;2.70;75.82
69247;BME280;56358;56.328;43.992;2023-04-01T04:07:59;99600.81;;;2.84;75.66
69247;BME280;56358;56.328;43.992;2023-04-01T04:10:00;99594.00;;;2.80;75.43
69247;BME280;56358;56.328;43.992;2023-04-01T04:12:01;99598.25;;;2.83;75.80
69247;BME280;56358;56.328;43.992;2023-04-01T04:14:02;99585.59;;;2.88;75.42
69247;BME280;56358;56.328;43.992;2023-04-01T04:16:03;99587.09;;;2.92;75.35
69247;BME280;56358;56.328;43.992;2023-04-01T04:18:04;99512.63;;;2.39;74.98
69247;BME280;56358;56.328;43.992;2023-04-01T04:20:05;99547.63;;;2.73;74.82
69247;BME280;56358;56.328;43.992;2023-04-01T04:22:05;99600.63;;;3.02;74.74
69247;BME280;56358;56.328;43.992;2023-04-01T04:24:07;99589.91;;;2.89;74.71
69247;BME280;56358;56.328;43.992;2023-04-01T04:26:11;99587.94;;;2.93;75.23
69247;BME280;56358;56.328;43.992;2023-04-01T04:28:12;99575.16;;;2.85;75.18
69247;BME280;56358;56.328;43.992;2023-04-01T04:30:13;99589.38;;;2.98;74.82
69247;BME280;56358;56.328;43.992;2023-04-01T04:32:14;99599.03;;;2.99;74.67
69247;BME280;56358;56.328;43.992;2023-04-01T04:34:14;99594.41;;;3.03;74.57
69247;BME280;56358;56.328;43.992;2023-04-01T04:36:15;99585.59;;;3.02;74.50
69247;BME280;56358;56.328;43.992;2023-04-01T04:38:16;99593.25;;;3.07;74.17
69247;BME280;56358;56.328;43.992;2023-04-01T04:40:16;99592.88;;;3.13;74.33
69247;BME280;56358;56.328;43.992;2023-04-01T04:42:17;99506.25;;;2.72;73.98
69247;BME280;56358;56.328;43.992;2023-04-01T04:44:18;99580.88;;;3.08;73.64
69247;BME280;56358;56.328;43.992;2023-04-01T04:46:19;99590.31;;;3.12;73.71
69247;BME280;56358;56.328;43.992;2023-04-01T04:48:20;99563.56;;;3.02;73.67
69247;BME280;56358;56.328;43.992;2023-04-01T04:50:21;99587.41;;;3.16;73.61
69247;BME280;56358;56.328;43.992;2023-04-01T04:52:22;99580.97;;;3.21;73.50
69247;BME280;56358;56.328;43.992;2023-04-01T04:54:22;99593.34;;;3.20;73.45
69247;BME280;56358;56.328;43.992;2023-04-01T04:56:23;99574.91;;;3.18;73.26
69247;BME280;56358;56.328;43.992;2023-04-01T04:58:25;99578.91;;;3.26;73.21
69247;BME280;56358;56.328;43.992;2023-04-01T05:00:26;99583.53;;;3.22;72.86
69247;BME280;56358;56.328;43.992;2023-04-01T05:02:27;99584.47;;;3.21;72.83
69247;BME280;56358;56.328;43.992;2023-04-01T05:04:28;99461.44;;;2.55;73.01
69247;BME280;56358;56.328;43.992;2023-04-01T05:06:28;99548.41;;;3.18;72.93
69247;BME280;56358;56.328;43.992;2023-04-01T05:08:32;99604.88;;;3.48;72.63
69247;BME280;56358;56.328;43.992;2023-04-01T05:10:33;99597.03;;;3.46;72.29
69247;BME280;56358;56.328;43.992;2023-04-01T05:12:33;99581.69;;;3.51;72.35
69247;BME280;56358;56.328;43.992;2023-04-01T05:14:37;99603.56;;;3.55;72.13
69247;BME280;56358;56.328;43.992;2023-04-01T05:16:38;99515.03;;;3.16;72.26
69247;BME280;56358;56.328;43.992;2023-04-01T05:18:39;99581.69;;;3.66;72.25
69247;BME280;56358;56.328;43.992;2023-04-01T05:20:46;99599.88;;;3.58;71.65
69247;BME280;56358;56.328;43.992;2023-04-01T05:22:47;99590.22;;;3.57;71.52
69247;BME280;56358;56.328;43.992;2023-04-01T05:24:48;99576.97;;;3.57;71.93
69247;BME280;56358;56.328;43.992;2023-04-01T05:26:49;99559.78;;;3.35;71.79
69247;BME280;56358;56.328;43.992;2023-04-01T05:28:49;99596.63;;;3.67;71.56
69247;BME280;56358;56.328;43.992;2023-04-01T05:30:50;99542.38;;;3.31;71.46
69247;BME280;56358;56.328;43.992;2023-04-01T05:32:51;99592.56;;;3.61;71.60
69247;BME280;56358;56.328;43.992;2023-04-01T05:34:52;99593.81;;;3.56;71.83
69247;BME280;56358;56.328;43.992;2023-04-01T05:36:53;99555.13;;;3.39;72.14
69247;BME280;56358;56.328;43.992;2023-04-01T05:38:57;99598.75;;;3.62;71.97
69247;BME280;56358;56.328;43.992;2023-04-01T05:41:01;99593.22;;;3.65;71.68
69247;BME280;56358;56.328;43.992;2023-04-01T05:43:02;99565.50;;;3.56;72.14
69247;BME280;56358;56.328;43.992;2023-04-01T05:45:03;99583.53;;;3.78;71.94
69247;BME280;56358;56.328;43.992;2023-04-01T05:47:04;99571.66;;;3.71;71.54
69247;BME280;56358;56.328;43.992;2023-04-01T05:49:05;99588.63;;;3.96;71.82
69247;BME280;56358;56.328;43.992;2023-04-01T05:51:06;99592.78;;;4.00;71.25
69247;BME280;56358;56.328;43.992;2023-04-01T05:53:06;99561.53;;;3.91;70.93
69247;BME280;56358;56.328;43.992;2023-04-01T05:55:07;99506.09;;;3.73;71.02
69247;BME280;56358;56.328;43.992;2023-04-01T05:57:08;99506.28;;;3.84;70.60
69247;BME280;56358;56.328;43.992;2023-04-01T05:59:10;99557.75;;;4.22;70.25
69247;BME280;56358;56.328;43.992;2023-04-01T06:01:11;99580.19;;;4.44;70.20
69247;BME280;56358;56.328;43.992;2023-04-01T06:03:12;99584.34;;;4.48;70.25
69247;BME280;56358;56.328;43.992;2023-04-01T06:05:20;99587.81;;;4.48;69.67
69247;BME280;56358;56.328;43.992;2023-04-01T06:07:21;99590.38;;;4.50;69.23
69247;BME280;56358;56.328;43.992;2023-04-01T06:09:29;99592.84;;;4.53;69.37
69247;BME280;56358;56.328;43.992;2023-04-01T06:11:46;99602.41;;;4.56;69.20
69247;BME280;56358;56.328;43.992;2023-04-01T06:17:03;99603.28;;;4.69;69.43
69247;BME280;56358;56.328;43.992;2023-04-01T06:21:01;99609.00;;;4.63;67.63
69247;BME280;56358;56.328;43.992;2023-04-01T06:27:49;99590.63;;;4.60;67.54
69247;BME280;56358;56.328;43.992;2023-04-01T06:53:11;99625.53;;;4.53;66.90
69247;BME280;56358;56.328;43.992;2023-04-01T06:55:18;99561.56;;;4.18;66.22
69247;BME280;56358;56.328;43.992;2023-04-01T06:57:42;99621.28;;;4.51;66.92
69247;BME280;56358;56.328;43.992;2023-04-01T06:59:44;99536.50;;;3.95;66.69
69247;BME280;56358;56.328;43.992;2023-04-01T07:04:21;99624.69;;;4.53;67.13
69247;BME280;56358;56.328;43.992;2023-04-01T07:06:32;99598.94;;;4.41;66.88
69247;BME280;56358;56.328;43.992;2023-04-01T07:08:39;99621.31;;;4.64;66.96
69247;BME280;56358;56.328;43.992;2023-04-01T07:10:53;99581.16;;;4.56;67.26
69247;BME280;56358;56.328;43.992;2023-04-01T07:12:59;99628.81;;;5.10;66.83
69247;BME280;56358;56.328;43.992;2023-04-01T07:17:28;99634.75;;;5.52;65.23
69247;BME280;56358;56.328;43.992;2023-04-01T07:20:02;99630.91;;;5.57;64.61
69247;BME280;56358;56.328;43.992;2023-04-01T07:22:09;99637.72;;;5.61;64.23
69247;BME280;56358;56.328;43.992;2023-04-01T07:24:34;99639.84;;;5.68;63.21
69247;BME280;56358;56.328;43.992;2023-04-01T07:26:36;99514.78;;;4.94;62.15
69247;BME280;56358;56.328;43.992;2023-04-01T07:28:37;99595.53;;;5.43;62.08
69247;BME280;56358;56.328;43.992;2023-04-01T07:33:27;99651.22;;;5.70;61.14
69247;BME280;56358;56.328;43.992;2023-04-01T07:37:58;99626.06;;;5.37;61.60
69247;BME280;56358;56.328;43.992;2023-04-01T07:40:45;99655.69;;;5.57;61.54
69247;BME280;56358;56.328;43.992;2023-04-01T07:43:15;99668.56;;;5.63;60.58
69247;BME280;56358;56.328;43.992;2023-04-01T07:45:40;99536.69;;;4.85;60.37
69247;BME280;56358;56.328;43.992;2023-04-01T07:48:11;99654.84;;;5.57;60.88
69247;BME280;56358;56.328;43.992;2023-04-01T07:52:35;99671.66;;;5.31;61.38
69247;BME280;56358;56.328;43.992;2023-04-01T07:57:02;99678.38;;;5.24;62.61
69247;BME280;56358;56.328;43.992;2023-04-01T07:59:09;99683.97;;;5.19;62.85
69247;BME280;56358;56.328;43.992;2023-04-01T08:03:48;99687.06;;;5.13;63.58
69247;BME280;56358;56.328;43.992;2023-04-01T08:06:04;99687.19;;;5.12;64.15
69247;BME280;56358;56.328;43.992;2023-04-01T08:09:05;99706.91;;;4.95;64.90
69247;BME280;56358;56.328;43.992;2023-04-01T08:10:53;99691.13;;;4.79;65.79
69247;BME280;56358;56.328;43.992;2023-04-01T08:15:41;99681.63;;;4.62;67.35
69247;BME280;56358;56.328;43.992;2023-04-01T08:17:57;99706.56;;;4.86;67.75
69247;BME280;56358;56.328;43.992;2023-04-01T08:22:17;99704.19;;;5.09;66.41
69247;BME280;56358;56.328;43.992;2023-04-01T08:24:36;99709.38;;;5.24;66.70
69247;BME280;56358;56.328;43.992;2023-04-01T08:26:45;99703.88;;;5.40;66.42
69247;BME280;56358;56.328;43.992;2023-04-01T08:28:57;99702.19;;;5.51;65.84
69247;BME280;56358;56.328;43.992;2023-04-01T08:31:12;99696.84;;;5.51;65.26
69247;BME280;56358;56.328;43.992;2023-04-01T08:33:27;99706.00;;;5.73;65.03
69247;BME280;56358;56.328;43.992;2023-04-01T08:35:37;99715.56;;;5.76;64.34
69247;BME280;56358;56.328;43.992;2023-04-01T08:37:41;99731.34;;;5.79;63.69
69247;BME280;56358;56.328;43.992;2023-04-01T08:39:48;99717.06;;;5.67;63.39
69247;BME280;56358;56.328;43.992;2023-04-01T08:42:24;99730.16;;;5.70;63.46
69247;BME280;56358;56.328;43.992;2023-04-01T08:44:40;99729.94;;;5.60;62.74
69247;BME280;56358;56.328;43.992;2023-04-01T08:56:14;99738.75;;;5.61;63.24
69247;BME280;56358;56.328;43.992;2023-04-01T08:58:27;99753.22;;;5.57;63.04
69247;BME280;56358;56.328;43.992;2023-04-01T09:22:31;99809.53;;;5.23;63.54
69247;BME280;56358;56.328;43.992;2023-04-01T09:27:32;99792.47;;;5.13;64.30
69247;BME280;56358;56.328;43.992;2023-04-01T09:32:11;99804.38;;;5.07;64.46
69247;BME280;56358;56.328;43.992;2023-04-01T09:36:50;99814.34;;;5.03;65.68
69247;BME280;56358;56.328;43.992;2023-04-01T09:38:59;99744.03;;;4.55;66.23
69247;BME280;56358;56.328;43.992;2023-04-01T09:41:31;99822.72;;;4.97;67.07
69247;BME280;56358;56.328;43.992;2023-04-01T09:46:14;99831.09;;;4.91;68.48
69247;BME280;56358;56.328;43.992;2023-04-01T09:50:40;99824.13;;;5.03;68.31
69247;BME280;56358;56.328;43.992;2023-04-01T09:53:13;99749.56;;;5.19;66.05
69247;BME280;56358;56.328;43.992;2023-04-01T10:21:06;99837.44;;;11.24;47.94
69247;BME280;56358;56.328;43.992;2023-04-01T10:26:31;99862.38;;;10.55;48.97
69247;BME280;56358;56.328;43.992;2023-04-01T10:49:44;99878.72;;;8.91;51.16
69247;BME280;56358;56.328;43.992;2023-04-01T10:59:24;99878.59;;;7.42;52.55
69247;BME280;56358;56.328;43.992;2023-04-01T11:09:09;99852.44;;;6.10;60.47
69247;BME280;56358;56.328;43.992;2023-04-01T11:14:00;99928.13;;;6.06;62.34
69247;BME280;56358;56.328;43.992;2023-04-01T11:25:17;99945.47;;;5.71;63.32
69247;BME280;56358;56.328;43.992;2023-04-01T11:31:53;99949.94;;;5.44;64.48
69247;BME280;56358;56.328;43.992;2023-04-01T11:36:38;99953.47;;;5.44;64.00
69247;BME280;56358;56.328;43.992;2023-04-01T11:39:12;99931.84;;;5.63;63.76
69247;BME280;56358;56.328;43.992;2023-04-01T11:41:43;99957.34;;;6.20;63.06
69247;BME280;56358;56.328;43.992;2023-04-01T11:44:09;99957.88;;;6.38;62.31
69247;BME280;56358;56.328;43.992;2023-04-01T11:46:47;99944.38;;;6.42;61.77
69247;BME280;56358;56.328;43.992;2023-04-01T11:49:02;99894.63;;;6.16;60.90
69247;BME280;56358;56.328;43.992;2023-04-01T11:58:27;99951.59;;;6.78;58.42
69247;BME280;56358;56.328;43.992;2023-04-01T12:07:44;99896.69;;;6.76;56.87
69247;BME280;56358;56.328;43.992;2023-04-01T12:10:02;99897.47;;;6.65;57.49
69247;BME280;56358;56.328;43.992;2023-04-01T12:20:58;99979.19;;;8.24;53.73
69247;BME280;56358;56.328;43.992;2023-04-01T12:23:14;99975.31;;;8.86;52.62
69247;BME280;56358;56.328;43.992;2023-04-01T12:27:45;99971.06;;;9.18;49.26
69247;BME280;56358;56.328;43.992;2023-04-01T12:41:32;100007.59;;;8.61;50.99
69247;BME280;56358;56.328;43.992;2023-04-01T12:46:07;100002.47;;;8.22;52.20
69247;BME280;56358;56.328;43.992;2023-04-01T12:53:16;100026.03;;;7.93;52.61
69247;BME280;56358;56.328;43.992;2023-04-01T12:55:32;100015.88;;;7.74;52.74
69247;BME280;56358;56.328;43.992;2023-04-01T13:05:01;100044.25;;;7.25;55.30
69247;BME280;56358;56.328;43.992;2023-04-01T13:07:31;100040.34;;;7.17;56.00
69247;BME280;56358;56.328;43.992;2023-04-01T13:10:13;100043.66;;;7.21;55.16
69247;BME280;56358;56.328;43.992;2023-04-01T13:12:28;100037.44;;;7.20;55.19
69247;BME280;56358;56.328;43.992;2023-04-01T13:17:08;100053.66;;;7.30;54.95
69247;BME280;56358;56.328;43.992;2023-04-01T13:19:18;100050.75;;;7.33;54.95
69247;BME280;56358;56.328;43.992;2023-04-01T13:21:48;100039.16;;;7.21;54.36
69247;BME280;56358;56.328;43.992;2023-04-01T13:28:27;100066.22;;;7.28;55.16
69247;BME280;56358;56.328;43.992;2023-04-01T13:30:53;100076.47;;;7.21;54.24
69247;BME280;56358;56.328;43.992;2023-04-01T13:33:27;100068.28;;;7.12;55.00
69247;BME280;56358;56.328;43.992;2023-04-01T13:42:51;100092.78;;;6.78;54.43
69247;BME280;56358;56.328;43.992;2023-04-01T13:45:16;100085.09;;;6.74;55.20
69247;BME280;56358;56.328;43.992;2023-04-01T14:01:00;100061.88;;;6.23;55.38
69247;BME280;56358;56.328;43.992;2023-04-01T14:16:55;100134.75;;;6.34;57.33
69247;BME280;56358;56.328;43.992;2023-04-01T14:29:00;100157.53;;;6.26;58.10
69247;BME280;56358;56.328;43.992;2023-04-01T14:41:10;100199.34;;;6.24;58.59
69247;BME280;56358;56.328;43.992;2023-04-01T14:50:17;100202.50;;;6.16;57.90
69247;BME280;56358;56.328;43.992;2023-04-01T14:52:33;100200.72;;;6.16;58.11
69247;BME280;56358;56.328;43.992;2023-04-01T14:54:37;100193.88;;;6.12;58.25
69247;BME280;56358;56.328;43.992;2023-04-01T14:58:44;100210.78;;;6.11;58.25
69247;BME280;56358;56.328;43.992;2023-04-01T15:01:00;100206.03;;;6.16;58.25
69247;BME280;56358;56.328;43.992;2023-04-01T15:03:29;100208.81;;;6.15;58.37
69247;BME280;56358;56.328;43.992;2023-04-01T15:05:49;100225.25;;;6.22;58.11
69247;BME280;56358;56.328;43.992;2023-04-01T15:15:24;100225.41;;;6.18;58.59
69247;BME280;56358;56.328;43.992;2023-04-01T15:24:24;100234.66;;;6.13;57.67
69247;BME280;56358;56.328;43.992;2023-04-01T15:31:17;100241.88;;;6.11;57.82
69247;BME280;56358;56.328;43.992;2023-04-01T15:40:49;100265.06;;;6.09;57.89
69247;BME280;56358;56.328;43.992;2023-04-01T15:43:07;100282.88;;;6.08;58.02
69247;BME280;56358;56.328;43.992;2023-04-01T15:57:32;100296.63;;;6.00;58.97
69247;BME280;56358;56.328;43.992;2023-04-01T16:04:48;100305.34;;;5.88;60.10
69247;BME280;56358;56.328;43.992;2023-04-01T16:09:36;100315.88;;;5.75;60.29
69247;BME280;56358;56.328;43.992;2023-04-01T16:11:59;100277.81;;;5.44;60.79
69247;BME280;56358;56.328;43.992;2023-04-01T16:14:18;100322.31;;;5.71;61.00
69247;BME280;56358;56.328;43.992;2023-04-01T16:23:56;100326.66;;;5.58;61.49
69247;BME280;56358;56.328;43.992;2023-04-01T16:26:19;100315.63;;;5.49;61.79
69247;BME280;56358;56.328;43.992;2023-04-01T16:28:27;100317.81;;;5.57;61.68
69247;BME280;56358;56.328;43.992;2023-04-01T16:30:44;100282.06;;;5.32;61.92
69247;BME280;56358;56.328;43.992;2023-04-01T16:35:01;100322.19;;;5.58;61.85
69247;BME280;56358;56.328;43.992;2023-04-01T16:37:17;100324.19;;;5.54;62.20
69247;BME280;56358;56.328;43.992;2023-04-01T16:42:26;100319.97;;;5.50;61.96
69247;BME280;56358;56.328;43.992;2023-04-01T16:44:49;100313.81;;;5.50;62.27
69247;BME280;56358;56.328;43.992;2023-04-01T16:46:52;100279.25;;;5.19;62.32
69247;BME280;56358;56.328;43.992;2023-04-01T16:51:11;100330.72;;;5.49;62.65
69247;BME280;56358;56.328;43.992;2023-04-01T16:55:35;100335.19;;;5.48;62.57
69247;BME280;56358;56.328;43.992;2023-04-01T17:02:28;100334.34;;;5.48;62.68
69247;BME280;56358;56.328;43.992;2023-04-01T17:04:47;100327.97;;;5.50;62.95
69247;BME280;56358;56.328;43.992;2023-04-01T17:13:46;100335.13;;;5.34;63.14
69247;BME280;56358;56.328;43.992;2023-04-01T17:18:23;100337.56;;;5.23;63.39
69247;BME280;56358;56.328;43.992;2023-04-01T17:22:34;100337.50;;;5.08;63.88
69247;BME280;56358;56.328;43.992;2023-04-01T17:32:16;100209.44;;;4.09;64.67
69247;BME280;56358;56.328;43.992;2023-04-01T17:43:25;100333.31;;;4.56;65.81
69247;BME280;56358;56.328;43.992;2023-04-01T17:45:36;100320.75;;;4.44;66.01
69247;BME280;56358;56.328;43.992;2023-04-01T17:47:52;100339.13;;;4.47;66.88
69247;BME280;56358;56.328;43.992;2023-04-01T17:52:46;100337.06;;;4.36;67.11
69247;BME280;56358;56.328;43.992;2023-04-01T18:04:47;100329.56;;;4.11;68.46
69247;BME280;56358;56.328;43.992;2023-04-01T18:07:24;100327.19;;;4.06;68.67
69247;BME280;56358;56.328;43.992;2023-04-01T18:14:07;100357.47;;;4.02;69.56
69247;BME280;56358;56.328;43.992;2023-04-01T18:23:03;100244.69;;;3.44;69.09
69247;BME280;56358;56.328;43.992;2023-04-01T18:25:28;100347.97;;;3.98;69.45
69247;BME280;56358;56.328;43.992;2023-04-01T18:27:36;100339.38;;;3.93;69.26
69247;BME280;56358;56.328;43.992;2023-04-01T18:29:53;100343.03;;;3.90;69.64
69247;BME280;56358;56.328;43.992;2023-04-01T18:34:40;100348.91;;;3.79;69.86
69247;BME280;56358;56.328;43.992;2023-04-01T18:37:12;100350.84;;;3.76;69.34
69247;BME280;56358;56.328;43.992;2023-04-01T18:39:22;100347.56;;;3.71;70.34